Impacts METAR Board
IDs:

KARM - Wharton Rgnl, TX, US

Updated at: 1300 UTC 14 Dec 2019
Potential Impact None Slight Moderate High
Time 14/01Z 14/02Z 14/03Z 14/04Z 14/05Z 14/06Z 14/07Z 14/08Z 14/09Z 14/10Z 14/11Z 14/12Z 14/13Z
Temp61 58 56 53 51 49 49 48 48 47 47 45
Dewpt48 48 47 46 46 45 45 44 44 42 44 43
Altim29.83 29.85 29.86 29.88 29.88 29.88 29.88 29.87 29.87 29.87 29.87 29.87
VIS10 10 10 10 10 10 10 10 10 10 10 10
CIG-- -- -- -- -- -- -- -- -- -- -- --
CoverCLRCLRCLRCLRCLRCLRCLRCLRCLRCLRCLRCLR
FltCatVFRVFRVFRVFRVFRVFRVFRVFRVFRVFRVFRVFR
WX------------------------
WDir2300003500004018000
WSpd3 0 0 0 3 0 0 0 3 4 0 0
WGst-- -- -- -- -- -- -- -- -- -- -- --
Raw hourly METARs
KARM 140055Z AUTO 23003KT 10SM CLR 16/09 A2983 RMK AO2 T01630090
KARM 140155Z AUTO 00000KT 10SM CLR 14/09 A2985 RMK AO2 T01420089
KARM 140300Z AUTO 00000KT 10SM CLR 13/09 A2986 RMK AO2 T01330086
KARM 140400Z AUTO 00000KT 10SM CLR 12/08 A2988 RMK AO2 T01170079
KARM 140455Z AUTO 35003KT 10SM CLR 11/08 A2988 RMK AO2 T01080075
KARM 140555Z AUTO 00000KT 10SM CLR 10/07 A2988 RMK AO2 T00970074 10195 20094 402360094
KARM 140650Z AUTO 00000KT 10SM CLR 10/07 A2988 RMK AO2 T00950071
KARM 140755Z AUTO 00000KT 10SM CLR 09/07 A2987 RMK AO2 T00890069
KARM 140855Z AUTO 04003KT 10SM CLR 09/07 A2987 RMK AO2 T00900069
KARM 140955Z AUTO 18004KT 10SM CLR 08/06 A2987 RMK AO2 T00840057
KARM 141055Z AUTO 00000KT 10SM CLR 08/07 A2987 RMK AO2 T00830065
KARM 141155Z AUTO 00000KT 10SM CLR 07/06 A2987 RMK AO2 T00740059 10099 20073




Page loaded:  13:46 UTC  |   05:46 AM Pacific  |   06:46 AM Mountain  |   07:46 AM Central  |   08:46 AM Eastern

 

ADVISORIES

FORECASTS

FORECASTS

OBSERVATIONS

USER TOOLS

ABOUT US